Time;durP1;ratioP1;P1;durP2;ratioP2;P2;SDS_P1;SDS_P2;PMS_P1;PMS_P2;Temp;Humidity;BMP_temperature;BMP_pressure;BME280_temperature;BME280_humidity;BME280_pressure;Samples;Min_cycle;Max_cycle;Signal;HPM_P1;HPM_P2
2023/09/24 00:01:35;;;;;;;4.65;2.10;;;;;;;25.79;48.72;101331.84;21082741;28;20052;-59
2023/09/24 00:11:42;;;;;;;3.15;2.17;;;;;;;25.74;48.72;101295.47;21088163;28;20048;-58
2023/09/24 00:21:43;;;;;;;4.90;2.60;;;;;;;25.77;48.54;101261.25;21073097;28;20493;-58
2023/09/24 00:31:47;;;;;;;3.83;1.88;;;;;;;25.76;48.63;101293.22;21029997;28;20413;-59
2023/09/24 00:41:49;;;;;;;3.47;2.00;;;;;;;25.76;48.95;101321.25;21040276;28;20040;-59
2023/09/24 00:51:54;;;;;;;2.05;1.85;;;;;;;25.74;48.70;101329.09;21085340;28;20073;-59
2023/09/24 01:01:57;;;;;;;3.03;2.08;;;;;;;25.74;48.39;101294.63;21084341;28;20452;-57
2023/09/24 01:12:03;;;;;;;2.75;1.80;;;;;;;25.70;48.45;101260.78;21083789;28;20044;-57
2023/09/24 01:22:05;;;;;;;4.57;1.45;;;;;;;25.71;48.09;101262.47;21012165;28;20071;-58
2023/09/24 01:32:08;;;;;;;2.55;1.40;;;;;;;25.67;48.66;101260.56;21063853;28;20101;-58
2023/09/24 01:42:13;;;;;;;2.28;1.23;;;;;;;25.68;48.21;101268.66;21078126;28;20101;-59
2023/09/24 01:52:15;;;;;;;3.00;1.88;;;;;;;25.70;48.14;101283.19;21074436;28;20040;-58
2023/09/24 02:02:16;;;;;;;2.38;1.63;;;;;;;25.64;48.32;101281.63;21029701;28;20060;-59
2023/09/24 02:12:19;;;;;;;1.83;1.30;;;;;;;25.67;48.28;101261.41;21018587;28;20479;-58
2023/09/24 02:22:22;;;;;;;1.42;1.10;;;;;;;25.66;48.35;101270.94;21077687;28;20070;-60
2023/09/24 02:32:27;;;;;;;1.70;1.30;;;;;;;25.64;48.35;101264.81;21078424;28;20474;-58
2023/09/24 02:42:28;;;;;;;1.60;1.10;;;;;;;25.64;48.29;101278.81;21074894;28;20044;-58
2023/09/24 02:52:29;;;;;;;2.50;1.30;;;;;;;25.62;48.29;101280.28;21058206;28;20040;-59
2023/09/24 03:02:32;;;;;;;2.10;1.40;;;;;;;25.62;48.07;101292.31;21075954;28;20048;-60
2023/09/24 03:12:34;;;;;;;1.73;1.00;;;;;;;25.62;48.33;101280.28;21014887;28;20380;-58
2023/09/24 03:22:35;;;;;;;1.90;1.48;;;;;;;25.60;48.16;101261.78;21067120;28;20040;-59
2023/09/24 03:32:37;;;;;;;2.80;1.13;;;;;;;25.58;48.50;101252.84;21074018;28;20487;-58
2023/09/24 03:42:39;;;;;;;2.95;0.80;;;;;;;25.58;48.48;101252.03;21061714;28;20520;-58
2023/09/24 03:52:41;;;;;;;1.58;1.02;;;;;;;25.41;48.41;101195.69;21075146;28;20040;-58
2023/09/24 04:02:47;;;;;;;17.45;2.38;;;;;;;25.59;48.72;101220.06;21060477;28;20487;-59
2023/09/24 04:12:50;;;;;;;9.23;1.73;;;;;;;25.54;48.65;101204.16;21081808;28;20428;-57
2023/09/24 04:22:51;;;;;;;8.45;1.50;;;;;;;25.59;48.64;101211.66;21038953;28;20066;-59
2023/09/24 04:32:54;;;;;;;3.63;1.45;;;;;;;25.58;48.59;101208.00;21086764;28;20028;-59
2023/09/24 04:42:55;;;;;;;7.30;1.38;;;;;;;25.58;48.58;101207.19;21086464;28;20133;-59
2023/09/24 04:52:57;;;;;;;6.75;1.23;;;;;;;25.56;48.85;101196.25;21085429;28;20036;-55
2023/09/24 05:03:01;;;;;;;4.80;1.40;;;;;;;25.49;48.90;101178.19;21083862;28;20388;-57
2023/09/24 05:13:05;;;;;;;3.35;0.80;;;;;;;25.56;48.97;101215.06;21056469;28;20110;-56
2023/09/24 05:23:06;;;;;;;4.63;1.10;;;;;;;25.54;48.79;101197.72;21069984;28;20448;-58
2023/09/24 05:33:11;;;;;;;5.10;1.10;;;;;;;25.58;48.51;101174.38;21066480;28;20536;-59
2023/09/24 05:43:12;;;;;;;1.83;0.90;;;;;;;25.48;48.79;101151.31;21067281;28;20028;-60
2023/09/24 05:53:16;;;;;;;4.55;0.73;;;;;;;25.57;48.52;101161.53;21077410;28;20066;-59
2023/09/24 06:03:17;;;;;;;3.05;0.82;;;;;;;25.55;48.41;101163.78;21058556;28;20066;-59
2023/09/24 06:13:22;;;;;;;1.83;0.88;;;;;;;25.55;48.47;101160.16;21075935;28;20376;-59
2023/09/24 06:23:23;;;;;;;2.78;1.10;;;;;;;25.53;48.53;101156.84;21077520;28;20036;-59
2023/09/24 06:33:24;;;;;;;2.90;0.82;;;;;;;25.51;48.26;101151.53;21071427;28;20056;-59
2023/09/24 06:43:28;;;;;;;0.77;0.50;;;;;;;25.51;48.53;101145.09;21071469;28;20377;-59
2023/09/24 06:53:30;;;;;;;0.85;0.50;;;;;;;25.51;48.41;101145.91;21049931;28;20040;-59
2023/09/24 07:03:31;;;;;;;1.63;0.55;;;;;;;25.49;48.58;101125.78;21068289;28;20044;-59
2023/09/24 07:13:32;;;;;;;0.80;0.50;;;;;;;25.48;48.41;101115.72;21063976;28;20156;-59
2023/09/24 07:23:34;;;;;;;1.45;0.80;;;;;;;25.47;48.52;101114.03;21065106;28;20052;-59
2023/09/24 07:33:35;;;;;;;0.75;0.50;;;;;;;25.46;48.48;101097.56;21060632;28;20052;-59
2023/09/24 07:43:44;;;;;;;1.77;0.50;;;;;;;25.46;48.45;101108.75;21074979;28;20101;-59
2023/09/24 07:53:46;;;;;;;1.85;0.70;;;;;;;25.46;48.62;101119.97;21080008;28;20687;-59
2023/09/24 08:03:47;;;;;;;0.57;0.50;;;;;;;25.46;48.50;101108.75;21080069;28;20486;-59
2023/09/24 08:13:50;;;;;;;1.10;0.40;;;;;;;25.44;48.46;101108.25;21075930;28;20036;-59
2023/09/24 08:23:51;;;;;;;0.80;0.43;;;;;;;25.44;48.75;101094.25;21081042;28;20048;-59
2023/09/24 08:33:52;;;;;;;0.75;0.52;;;;;;;25.43;48.58;101100.97;21069396;28;20035;-59
2023/09/24 08:43:56;;;;;;;1.13;0.55;;;;;;;25.34;48.74;101090.50;21070729;28;20044;-59
2023/09/24 08:53:58;;;;;;;0.60;0.38;;;;;;;25.41;48.82;101111.66;21075971;28;20036;-59
2023/09/24 09:04:00;;;;;;;1.15;0.50;;;;;;;25.41;48.61;101100.44;21076932;28;20092;-59
2023/09/24 09:14:03;;;;;;;0.50;0.40;;;;;;;25.40;48.56;101085.63;21076334;28;20074;-58
2023/09/24 09:24:25;;;;;;;0.50;0.40;;;;;;;25.35;48.72;101100.53;21072867;28;20094;-59
2023/09/24 09:34:29;;;;;;;0.40;0.40;;;;;;;25.26;48.59;101079.16;21072850;28;20065;-59
2023/09/24 09:44:32;;;;;;;0.20;0.20;;;;;;;25.38;49.04;101101.06;21071806;28;20092;-58
2023/09/24 09:54:37;;;;;;;0.98;0.50;;;;;;;25.37;48.81;101093.81;21071518;28;20055;-58
2023/09/24 10:04:38;;;;;;;0.38;0.38;;;;;;;25.36;48.92;101112.59;21059346;28;20028;-58
2023/09/24 10:14:43;;;;;;;0.50;0.32;;;;;;;25.30;49.05;101111.84;21066583;28;20403;-58
2023/09/24 10:24:47;;;;;;;0.38;0.30;;;;;;;25.34;48.90;101107.28;21070056;28;20386;-59
2023/09/24 10:34:51;;;;;;;0.20;0.20;;;;;;;25.33;48.88;101116.81;21060209;28;20047;-59
2023/09/24 10:45:08;;;;;;;0.40;0.40;;;;;;;25.30;48.83;101130.63;21060085;28;20040;-59
2023/09/24 10:55:12;;;;;;;0.30;0.30;;;;;;;25.32;49.08;101131.13;21069574;28;20503;-59
2023/09/24 11:05:13;;;;;;;0.20;0.17;;;;;;;25.31;49.26;101141.50;21062804;28;20044;-59
2023/09/24 11:15:18;;;;;;;0.35;0.30;;;;;;;25.27;49.21;101142.44;21070139;28;20495;-59
2023/09/24 11:25:19;;;;;;;0.20;0.20;;;;;;;25.30;49.31;101181.88;21076592;28;20063;-59
2023/09/24 11:35:25;;;;;;;0.95;0.28;;;;;;;25.30;49.37;101169.84;21081401;28;20044;-59
2023/09/24 11:45:40;;;;;;;0.28;0.22;;;;;;;25.26;49.39;101168.78;21069450;28;20090;-58
2023/09/24 11:55:41;;;;;;;0.30;0.30;;;;;;;25.15;49.32;101161.66;21073893;28;20391;-59
2023/09/24 12:05:44;;;;;;;0.43;0.40;;;;;;;25.26;49.61;101175.22;21067457;28;20044;-59
2023/09/24 12:15:45;;;;;;;0.20;0.20;;;;;;;25.26;49.60;101189.22;21074310;28;20063;-58
2023/09/24 12:25:47;;;;;;;0.28;0.20;;;;;;;25.26;49.71;101172.41;21078930;28;20040;-58
2023/09/24 12:35:49;;;;;;;0.75;0.20;;;;;;;25.26;49.56;101183.63;21079407;28;20058;-58
2023/09/24 12:45:54;;;;;;;0.65;0.20;;;;;;;25.25;49.50;101193.16;21076468;28;20024;-59
2023/09/24 12:55:56;;;;;;;0.32;0.20;;;;;;;25.24;49.82;101185.03;21077126;28;20048;-58
2023/09/24 13:05:57;;;;;;;0.60;0.20;;;;;;;25.26;49.75;101194.81;21056356;28;20433;-58
2023/09/24 13:15:59;;;;;;;0.15;0.15;;;;;;;25.25;49.18;101193.16;21075670;28;20044;-59
2023/09/24 13:26:00;;;;;;;0.30;0.30;;;;;;;25.25;50.23;101198.75;21068408;28;20047;-56
2023/09/24 13:36:04;;;;;;;0.40;0.30;;;;;;;25.18;49.97;101175.91;21073987;28;20048;-57
2023/09/24 13:46:05;;;;;;;0.73;0.30;;;;;;;25.29;50.09;101194.22;21074507;28;20032;-60
2023/09/24 13:56:14;;;;;;;1.38;0.40;;;;;;;25.28;50.11;101198.13;21065987;28;20044;-60
2023/09/24 14:06:15;;;;;;;0.32;0.30;;;;;;;25.29;50.31;101199.81;21066263;28;20051;-61
2023/09/24 14:16:16;;;;;;;0.32;0.32;;;;;;;25.28;50.30;101186.94;21059644;28;20044;-60
2023/09/24 14:26:21;;;;;;;0.55;0.38;;;;;;;25.18;50.07;101145.09;21067297;28;20040;-61
2023/09/24 14:36:23;;;;;;;0.20;0.20;;;;;;;25.28;50.28;101142.13;21058001;28;20479;-60
2023/09/24 14:46:26;;;;;;;0.77;0.30;;;;;;;25.30;50.38;101131.44;21068232;28;20036;-60
2023/09/24 14:56:27;;;;;;;1.05;0.40;;;;;;;25.29;50.30;101149.41;21064277;28;20040;-59
2023/09/24 15:06:29;;;;;;;0.50;0.50;;;;;;;25.29;50.67;101159.75;21052807;28;20051;-59
2023/09/24 15:16:33;;;;;;;1.73;0.38;;;;;;;25.21;50.79;101141.69;21072647;28;20048;-59
2023/09/24 15:26:34;;;;;;;1.85;0.47;;;;;;;25.28;50.96;101130.91;21051399;28;20074;-59
2023/09/24 15:36:42;;;;;;;1.75;0.52;;;;;;;25.28;51.19;101128.09;21062015;28;20052;-60
2023/09/24 15:46:46;;;;;;;2.10;0.60;;;;;;;25.28;51.29;101125.31;21040968;28;20036;-59
2023/09/24 15:56:47;;;;;;;1.27;0.57;;;;;;;25.28;51.27;101102.91;21052814;28;20483;-59
2023/09/24 16:06:49;;;;;;;1.55;0.70;;;;;;;25.26;51.30;101102.38;21078559;28;20066;-60
2023/09/24 16:16:53;;;;;;;2.80;0.50;;;;;;;25.27;51.19;101106.84;21084284;28;20352;-59
2023/09/24 16:26:57;;;;;;;6.32;0.68;;;;;;;25.27;51.01;101101.25;21079528;28;20044;-59
2023/09/24 16:37:00;;;;;;;3.05;0.70;;;;;;;25.28;51.11;101113.28;21063091;28;20043;-58
2023/09/24 16:47:05;;;;;;;2.22;0.85;;;;;;;25.25;51.01;101133.53;21073104;28;20381;-58
2023/09/24 16:57:07;;;;;;;3.05;0.95;;;;;;;25.26;50.82;101110.78;21069901;28;20040;-59
2023/09/24 17:07:12;;;;;;;2.97;1.00;;;;;;;25.27;50.83;101112.44;21043359;28;20044;-60
2023/09/24 17:17:13;;;;;;;2.63;0.98;;;;;;;25.27;50.81;101076.03;20999569;28;20101;-59
2023/09/24 17:27:15;;;;;;;3.75;1.58;;;;;;;25.24;51.14;101076.63;21052000;28;20045;-59
2023/09/24 17:37:17;;;;;;;4.43;0.82;;;;;;;25.26;50.79;101062.34;20998455;28;20097;-59
2023/09/24 17:47:18;;;;;;;2.55;1.00;;;;;;;25.25;50.78;101061.53;20996815;28;20036;-59
2023/09/24 17:57:19;;;;;;;1.38;0.75;;;;;;;25.22;50.64;101050.09;20996806;28;20369;-60
2023/09/24 18:07:21;;;;;;;1.98;0.70;;;;;;;25.24;50.78;101057.03;21059700;28;20039;-57
2023/09/24 18:17:22;;;;;;;3.65;1.08;;;;;;;25.24;50.88;101073.84;21077803;28;20096;-59
2023/09/24 18:27:27;;;;;;;1.73;0.60;;;;;;;25.23;50.73;101077.78;21051144;28;20036;-59
2023/09/24 18:37:29;;;;;;;1.73;0.70;;;;;;;25.23;50.87;101075.00;20993483;28;20482;-59
2023/09/24 18:47:31;;;;;;;1.95;0.88;;;;;;;25.22;50.59;101070.53;20993805;28;20041;-59
2023/09/24 18:57:35;;;;;;;2.42;0.70;;;;;;;25.19;50.42;101059.94;20992605;28;20569;-59
2023/09/24 19:07:37;;;;;;;3.47;0.68;;;;;;;25.22;50.64;101064.94;21058121;28;20556;-59
2023/09/24 19:17:39;;;;;;;1.13;0.60;;;;;;;25.21;50.60;101051.25;21077001;28;20077;-60
2023/09/24 19:27:40;;;;;;;2.50;0.80;;;;;;;25.22;50.64;101052.91;21074338;28;20036;-59
2023/09/24 19:37:42;;;;;;;1.20;0.60;;;;;;;25.14;50.79;101060.03;21079658;28;20040;-59
2023/09/24 19:47:46;;;;;;;1.30;0.80;;;;;;;25.22;50.78;101064.94;21091150;28;20040;-59
2023/09/24 19:57:47;;;;;;;1.00;0.60;;;;;;;25.20;50.76;101060.75;21089141;28;20036;-59
2023/09/24 20:07:51;;;;;;;2.00;0.80;;;;;;;25.20;50.74;101064.41;21020353;28;20040;-58
2023/09/24 20:17:52;;;;;;;1.17;0.68;;;;;;;25.20;50.67;101055.16;21005002;28;20040;-58
2023/09/24 20:27:55;;;;;;;0.93;0.60;;;;;;;25.06;50.81;101047.56;21004387;28;20438;-58
2023/09/24 20:37:56;;;;;;;1.98;0.60;;;;;;;25.19;50.54;101075.91;21032838;28;20124;-59
2023/09/24 20:48:02;;;;;;;1.67;0.63;;;;;;;25.18;50.74;101079.84;21071829;28;20560;-59
2023/09/24 20:58:03;;;;;;;7.80;3.65;;;;;;;25.16;50.76;101071.78;21086156;28;20403;-60
2023/09/24 21:08:08;;;;;;;15.75;4.82;;;;;;;25.18;50.85;101083.47;21057600;28;20458;-59
2023/09/24 21:18:09;;;;;;;24.50;6.15;;;;;;;25.18;50.68;101079.84;21080888;28;20110;-59
2023/09/24 21:28:11;;;;;;;30.23;9.48;;;;;;;25.17;50.63;101087.44;21067698;28;20043;-59
2023/09/24 21:38:12;;;;;;;29.23;10.38;;;;;;;25.17;50.66;101095.00;21076207;28;20036;-60
2023/09/24 21:48:16;;;;;;;31.98;11.45;;;;;;;25.17;50.82;101090.22;21079872;28;20449;-59
2023/09/24 21:58:18;;;;;;;38.90;13.95;;;;;;;25.17;50.88;101100.59;21045939;28;20459;-59
2023/09/24 22:08:19;;;;;;;40.70;14.13;;;;;;;25.14;50.79;101101.19;21079652;28;20514;-59
2023/09/24 22:18:21;;;;;;;46.50;16.23;;;;;;;25.16;51.05;101122.19;21077213;28;20109;-59
2023/09/24 22:28:22;;;;;;;44.45;15.95;;;;;;;24.62;50.76;101036.78;21062484;28;20043;-59
2023/09/24 22:38:24;;;;;;;42.95;17.50;;;;;;;25.05;50.74;101115.03;21071120;28;20048;-59
2023/09/24 22:48:26;;;;;;;41.90;15.75;;;;;;;25.15;51.19;101131.69;21068711;28;20040;-59
2023/09/24 22:58:27;;;;;;;41.78;17.10;;;;;;;25.09;51.40;101128.16;21063872;28;20536;-59
2023/09/24 23:08:29;;;;;;;43.63;16.40;;;;;;;25.15;50.95;101133.66;21045262;28;20044;-57
2023/09/24 23:18:30;;;;;;;42.15;15.75;;;;;;;25.10;51.24;101140.19;21073940;28;20051;-59
2023/09/24 23:28:32;;;;;;;40.75;15.98;;;;;;;25.14;51.28;101146.00;21089632;27;20115;-59
2023/09/24 23:38:33;;;;;;;45.17;15.70;;;;;;;25.14;51.32;101152.44;21079937;28;20044;-57
2023/09/24 23:48:35;;;;;;;38.40;15.10;;;;;;;25.14;51.17;101158.03;21089360;28;20059;-59
2023/09/24 23:58:36;;;;;;;38.90;15.45;;;;;;;25.14;51.50;101174.00;21078911;28;20044;-59
